Terminal Aerodrome Forecast
Issued by NWS Wilmington, OH

Current Version | Previous Version | Text Only | Print | Product List | Glossary Off
Versions: 1 2 3 4 5 6 7 8 9 10 11 12 13 14 15 16 17 18 19 20 21 22 23 24 25 26 27 28 29 30 31

000
FTUS41 KILN 190800 AAA
TAFCVG
TAF AMD
KCVG 190859Z 1909/2012 07005KT P6SM SKC
     FM191500 09008KT P6SM FEW050
     FM192300 11004KT P6SM SKC
     FM201100 18005KT P6SM SCT060=

USA.gov is the U.S. government's official web portal to all federal, state and local government web resources and services.